sensor_id;sensor_type;location;lat;lon;timestamp;P1;durP1;ratioP1;P2;durP2;ratioP2
2305;SDS011;1161;51.922;8.896;2023-02-01T00:02:14;14.57;;;5.50;;
2305;SDS011;1161;51.922;8.896;2023-02-01T00:04:40;27.67;;;4.90;;
2305;SDS011;1161;51.922;8.896;2023-02-01T00:07:07;26.00;;;5.43;;
2305;SDS011;1161;51.922;8.896;2023-02-01T00:09:36;36.47;;;4.93;;
2305;SDS011;1161;51.922;8.896;2023-02-01T00:12:04;18.07;;;4.40;;
2305;SDS011;1161;51.922;8.896;2023-02-01T00:14:31;25.77;;;5.60;;
2305;SDS011;1161;51.922;8.896;2023-02-01T00:17:03;21.87;;;6.10;;
2305;SDS011;1161;51.922;8.896;2023-02-01T00:19:30;41.47;;;7.93;;
2305;SDS011;1161;51.922;8.896;2023-02-01T00:21:56;25.37;;;5.87;;
2305;SDS011;1161;51.922;8.896;2023-02-01T00:24:23;11.03;;;4.27;;
2305;SDS011;1161;51.922;8.896;2023-02-01T00:26:50;18.17;;;4.60;;
2305;SDS011;1161;51.922;8.896;2023-02-01T00:29:18;22.03;;;4.57;;
2305;SDS011;1161;51.922;8.896;2023-02-01T00:31:45;11.50;;;3.47;;
2305;SDS011;1161;51.922;8.896;2023-02-01T00:34:13;24.10;;;5.80;;
2305;SDS011;1161;51.922;8.896;2023-02-01T00:36:41;33.10;;;6.33;;
2305;SDS011;1161;51.922;8.896;2023-02-01T00:39:09;27.57;;;4.40;;
2305;SDS011;1161;51.922;8.896;2023-02-01T00:41:35;20.40;;;4.27;;
2305;SDS011;1161;51.922;8.896;2023-02-01T00:44:02;27.77;;;4.50;;
2305;SDS011;1161;51.922;8.896;2023-02-01T00:46:30;15.00;;;3.90;;
2305;SDS011;1161;51.922;8.896;2023-02-01T00:48:57;15.43;;;4.27;;
2305;SDS011;1161;51.922;8.896;2023-02-01T00:51:24;32.77;;;5.00;;
2305;SDS011;1161;51.922;8.896;2023-02-01T00:53:52;29.23;;;5.53;;
2305;SDS011;1161;51.922;8.896;2023-02-01T00:56:19;24.53;;;5.00;;
2305;SDS011;1161;51.922;8.896;2023-02-01T00:58:46;17.73;;;4.63;;
2305;SDS011;1161;51.922;8.896;2023-02-01T01:01:14;13.07;;;5.43;;
2305;SDS011;1161;51.922;8.896;2023-02-01T01:03:44;38.53;;;5.30;;
2305;SDS011;1161;51.922;8.896;2023-02-01T01:06:12;21.50;;;6.57;;
2305;SDS011;1161;51.922;8.896;2023-02-01T01:08:41;33.73;;;6.00;;
2305;SDS011;1161;51.922;8.896;2023-02-01T01:11:08;32.00;;;5.87;;
2305;SDS011;1161;51.922;8.896;2023-02-01T01:13:36;20.63;;;5.60;;
2305;SDS011;1161;51.922;8.896;2023-02-01T01:16:03;21.23;;;6.23;;
2305;SDS011;1161;51.922;8.896;2023-02-01T01:18:31;22.53;;;6.13;;
2305;SDS011;1161;51.922;8.896;2023-02-01T01:21:00;15.13;;;5.17;;
2305;SDS011;1161;51.922;8.896;2023-02-01T01:23:27;20.73;;;5.63;;
2305;SDS011;1161;51.922;8.896;2023-02-01T01:25:54;11.17;;;5.03;;
2305;SDS011;1161;51.922;8.896;2023-02-01T01:28:21;24.23;;;6.73;;
2305;SDS011;1161;51.922;8.896;2023-02-01T01:30:47;20.23;;;4.30;;
2305;SDS011;1161;51.922;8.896;2023-02-01T01:33:14;22.13;;;5.60;;
2305;SDS011;1161;51.922;8.896;2023-02-01T01:35:41;31.07;;;6.10;;
2305;SDS011;1161;51.922;8.896;2023-02-01T01:38:09;18.70;;;4.57;;
2305;SDS011;1161;51.922;8.896;2023-02-01T01:40:36;24.30;;;4.90;;
2305;SDS011;1161;51.922;8.896;2023-02-01T01:43:05;12.03;;;5.53;;
2305;SDS011;1161;51.922;8.896;2023-02-01T01:45:37;16.57;;;5.87;;
2305;SDS011;1161;51.922;8.896;2023-02-01T01:48:04;19.27;;;5.63;;
2305;SDS011;1161;51.922;8.896;2023-02-01T01:50:34;23.33;;;5.40;;
2305;SDS011;1161;51.922;8.896;2023-02-01T01:53:03;18.70;;;5.70;;
2305;SDS011;1161;51.922;8.896;2023-02-01T01:55:32;24.60;;;6.00;;
2305;SDS011;1161;51.922;8.896;2023-02-01T01:58:03;18.53;;;6.10;;
2305;SDS011;1161;51.922;8.896;2023-02-01T02:00:32;12.93;;;3.90;;
2305;SDS011;1161;51.922;8.896;2023-02-01T02:03:00;26.07;;;7.63;;
2305;SDS011;1161;51.922;8.896;2023-02-01T02:05:30;24.87;;;6.80;;
2305;SDS011;1161;51.922;8.896;2023-02-01T02:07:57;21.83;;;5.80;;
2305;SDS011;1161;51.922;8.896;2023-02-01T02:10:25;12.43;;;5.33;;
2305;SDS011;1161;51.922;8.896;2023-02-01T02:13:14;21.27;;;5.73;;
2305;SDS011;1161;51.922;8.896;2023-02-01T02:15:43;17.47;;;5.23;;
2305;SDS011;1161;51.922;8.896;2023-02-01T02:18:14;19.27;;;4.80;;
2305;SDS011;1161;51.922;8.896;2023-02-01T02:20:52;24.90;;;6.13;;
2305;SDS011;1161;51.922;8.896;2023-02-01T02:23:50;10.53;;;5.73;;
2305;SDS011;1161;51.922;8.896;2023-02-01T02:26:43;11.83;;;4.67;;
2305;SDS011;1161;51.922;8.896;2023-02-01T02:35:23;16.70;;;6.63;;
2305;SDS011;1161;51.922;8.896;2023-02-01T02:37:55;33.23;;;8.50;;
2305;SDS011;1161;51.922;8.896;2023-02-01T02:40:28;36.63;;;8.10;;
2305;SDS011;1161;51.922;8.896;2023-02-01T02:42:58;16.80;;;6.83;;
2305;SDS011;1161;51.922;8.896;2023-02-01T02:45:50;25.87;;;7.87;;
2305;SDS011;1161;51.922;8.896;2023-02-01T02:48:36;26.23;;;8.40;;
2305;SDS011;1161;51.922;8.896;2023-02-01T02:51:07;31.03;;;8.20;;
2305;SDS011;1161;51.922;8.896;2023-02-01T02:53:56;32.93;;;8.17;;
2305;SDS011;1161;51.922;8.896;2023-02-01T02:56:43;25.83;;;8.73;;
2305;SDS011;1161;51.922;8.896;2023-02-01T02:59:28;19.80;;;7.27;;
2305;SDS011;1161;51.922;8.896;2023-02-01T03:02:13;23.30;;;6.40;;
2305;SDS011;1161;51.922;8.896;2023-02-01T03:04:58;17.50;;;7.30;;
2305;SDS011;1161;51.922;8.896;2023-02-01T03:10:24;31.43;;;7.43;;
2305;SDS011;1161;51.922;8.896;2023-02-01T03:12:59;13.63;;;6.00;;
2305;SDS011;1161;51.922;8.896;2023-02-01T03:15:31;13.23;;;5.70;;
2305;SDS011;1161;51.922;8.896;2023-02-01T03:18:01;18.70;;;5.47;;
2305;SDS011;1161;51.922;8.896;2023-02-01T03:20:29;25.33;;;6.90;;
2305;SDS011;1161;51.922;8.896;2023-02-01T03:22:57;14.20;;;6.53;;
2305;SDS011;1161;51.922;8.896;2023-02-01T03:25:27;11.13;;;5.40;;
2305;SDS011;1161;51.922;8.896;2023-02-01T03:27:56;34.53;;;7.07;;
2305;SDS011;1161;51.922;8.896;2023-02-01T03:30:26;28.80;;;6.63;;
2305;SDS011;1161;51.922;8.896;2023-02-01T03:32:54;51.03;;;6.70;;
2305;SDS011;1161;51.922;8.896;2023-02-01T03:35:26;28.20;;;7.23;;
2305;SDS011;1161;51.922;8.896;2023-02-01T03:38:00;19.10;;;5.50;;
2305;SDS011;1161;51.922;8.896;2023-02-01T03:40:28;14.10;;;5.27;;
2305;SDS011;1161;51.922;8.896;2023-02-01T03:42:59;21.73;;;4.60;;
2305;SDS011;1161;51.922;8.896;2023-02-01T03:45:34;32.70;;;6.33;;
2305;SDS011;1161;51.922;8.896;2023-02-01T03:48:04;26.97;;;5.43;;
2305;SDS011;1161;51.922;8.896;2023-02-01T03:50:31;28.10;;;6.60;;
2305;SDS011;1161;51.922;8.896;2023-02-01T03:53:03;13.13;;;5.17;;
2305;SDS011;1161;51.922;8.896;2023-02-01T03:55:32;19.40;;;3.83;;
2305;SDS011;1161;51.922;8.896;2023-02-01T03:58:01;20.90;;;5.27;;
2305;SDS011;1161;51.922;8.896;2023-02-01T04:00:30;22.77;;;3.97;;
2305;SDS011;1161;51.922;8.896;2023-02-01T04:02:57;23.60;;;4.90;;
2305;SDS011;1161;51.922;8.896;2023-02-01T04:05:23;13.63;;;3.30;;
2305;SDS011;1161;51.922;8.896;2023-02-01T04:07:50;10.13;;;3.20;;
2305;SDS011;1161;51.922;8.896;2023-02-01T04:10:18;16.80;;;3.93;;
2305;SDS011;1161;51.922;8.896;2023-02-01T04:12:45;24.37;;;4.73;;
2305;SDS011;1161;51.922;8.896;2023-02-01T04:15:12;17.30;;;5.50;;
2305;SDS011;1161;51.922;8.896;2023-02-01T04:17:39;37.60;;;5.43;;
2305;SDS011;1161;51.922;8.896;2023-02-01T04:20:06;27.27;;;5.17;;
2305;SDS011;1161;51.922;8.896;2023-02-01T04:22:34;22.13;;;4.80;;
2305;SDS011;1161;51.922;8.896;2023-02-01T04:25:01;11.73;;;4.10;;
2305;SDS011;1161;51.922;8.896;2023-02-01T04:27:32;7.97;;;4.63;;
2305;SDS011;1161;51.922;8.896;2023-02-01T04:29:59;9.83;;;4.10;;
2305;SDS011;1161;51.922;8.896;2023-02-01T04:32:26;14.03;;;4.27;;
2305;SDS011;1161;51.922;8.896;2023-02-01T04:34:53;25.83;;;3.90;;
2305;SDS011;1161;51.922;8.896;2023-02-01T04:37:20;16.87;;;4.13;;
2305;SDS011;1161;51.922;8.896;2023-02-01T04:39:47;17.33;;;3.60;;
2305;SDS011;1161;51.922;8.896;2023-02-01T04:42:14;23.87;;;5.17;;
2305;SDS011;1161;51.922;8.896;2023-02-01T04:44:42;15.63;;;5.17;;
2305;SDS011;1161;51.922;8.896;2023-02-01T04:47:10;13.23;;;4.60;;
2305;SDS011;1161;51.922;8.896;2023-02-01T04:49:36;10.57;;;3.73;;
2305;SDS011;1161;51.922;8.896;2023-02-01T04:52:05;16.80;;;3.77;;
2305;SDS011;1161;51.922;8.896;2023-02-01T04:54:33;13.30;;;6.70;;
2305;SDS011;1161;51.922;8.896;2023-02-01T04:57:01;11.83;;;3.73;;
2305;SDS011;1161;51.922;8.896;2023-02-01T04:59:28;24.17;;;4.63;;
2305;SDS011;1161;51.922;8.896;2023-02-01T05:01:57;16.17;;;5.10;;
2305;SDS011;1161;51.922;8.896;2023-02-01T05:04:27;12.90;;;4.57;;
2305;SDS011;1161;51.922;8.896;2023-02-01T05:06:54;16.30;;;4.90;;
2305;SDS011;1161;51.922;8.896;2023-02-01T05:09:21;11.47;;;5.57;;
2305;SDS011;1161;51.922;8.896;2023-02-01T05:11:52;13.13;;;5.73;;
2305;SDS011;1161;51.922;8.896;2023-02-01T05:14:37;13.60;;;5.83;;
2305;SDS011;1161;51.922;8.896;2023-02-01T05:17:10;14.33;;;4.80;;
2305;SDS011;1161;51.922;8.896;2023-02-01T05:19:38;15.03;;;5.20;;
2305;SDS011;1161;51.922;8.896;2023-02-01T05:22:05;15.10;;;5.40;;
2305;SDS011;1161;51.922;8.896;2023-02-01T05:24:32;27.00;;;5.70;;
2305;SDS011;1161;51.922;8.896;2023-02-01T05:27:00;18.73;;;5.83;;
2305;SDS011;1161;51.922;8.896;2023-02-01T05:29:32;17.87;;;5.60;;
2305;SDS011;1161;51.922;8.896;2023-02-01T05:32:00;10.60;;;5.10;;
2305;SDS011;1161;51.922;8.896;2023-02-01T05:34:31;16.27;;;5.67;;
2305;SDS011;1161;51.922;8.896;2023-02-01T05:36:58;30.23;;;5.87;;
2305;SDS011;1161;51.922;8.896;2023-02-01T05:39:25;24.00;;;6.07;;
2305;SDS011;1161;51.922;8.896;2023-02-01T05:41:53;36.77;;;5.97;;
2305;SDS011;1161;51.922;8.896;2023-02-01T05:44:21;9.60;;;3.73;;
2305;SDS011;1161;51.922;8.896;2023-02-01T05:46:48;15.23;;;4.70;;
2305;SDS011;1161;51.922;8.896;2023-02-01T05:49:14;13.70;;;4.93;;
2305;SDS011;1161;51.922;8.896;2023-02-01T05:51:43;30.47;;;5.27;;
2305;SDS011;1161;51.922;8.896;2023-02-01T05:54:10;17.97;;;4.70;;
2305;SDS011;1161;51.922;8.896;2023-02-01T05:56:37;14.37;;;6.27;;
2305;SDS011;1161;51.922;8.896;2023-02-01T05:59:04;15.47;;;5.17;;
2305;SDS011;1161;51.922;8.896;2023-02-01T06:01:32;35.07;;;5.93;;
2305;SDS011;1161;51.922;8.896;2023-02-01T06:03:59;21.63;;;5.93;;
2305;SDS011;1161;51.922;8.896;2023-02-01T06:06:28;46.80;;;5.60;;
2305;SDS011;1161;51.922;8.896;2023-02-01T06:08:58;19.87;;;5.57;;
2305;SDS011;1161;51.922;8.896;2023-02-01T06:11:25;20.80;;;4.80;;
2305;SDS011;1161;51.922;8.896;2023-02-01T06:13:53;9.30;;;5.40;;
2305;SDS011;1161;51.922;8.896;2023-02-01T06:16:21;13.50;;;5.63;;
2305;SDS011;1161;51.922;8.896;2023-02-01T06:18:49;11.50;;;5.40;;
2305;SDS011;1161;51.922;8.896;2023-02-01T06:21:16;31.10;;;6.47;;
2305;SDS011;1161;51.922;8.896;2023-02-01T06:23:49;39.17;;;6.50;;
2305;SDS011;1161;51.922;8.896;2023-02-01T06:26:19;29.07;;;6.67;;
2305;SDS011;1161;51.922;8.896;2023-02-01T06:28:46;21.70;;;5.93;;
2305;SDS011;1161;51.922;8.896;2023-02-01T06:31:14;19.20;;;5.37;;
2305;SDS011;1161;51.922;8.896;2023-02-01T06:33:45;29.53;;;7.37;;
2305;SDS011;1161;51.922;8.896;2023-02-01T06:36:12;23.33;;;6.60;;
2305;SDS011;1161;51.922;8.896;2023-02-01T06:38:41;12.60;;;4.13;;
2305;SDS011;1161;51.922;8.896;2023-02-01T06:41:08;14.00;;;5.43;;
2305;SDS011;1161;51.922;8.896;2023-02-01T06:43:36;23.80;;;6.33;;
2305;SDS011;1161;51.922;8.896;2023-02-01T06:46:04;25.20;;;4.87;;
2305;SDS011;1161;51.922;8.896;2023-02-01T06:48:33;19.77;;;6.37;;
2305;SDS011;1161;51.922;8.896;2023-02-01T06:51:01;15.77;;;4.67;;
2305;SDS011;1161;51.922;8.896;2023-02-01T06:53:27;30.53;;;4.80;;
2305;SDS011;1161;51.922;8.896;2023-02-01T06:55:57;24.73;;;5.97;;
2305;SDS011;1161;51.922;8.896;2023-02-01T06:58:27;10.10;;;5.03;;
2305;SDS011;1161;51.922;8.896;2023-02-01T07:00:56;15.93;;;6.10;;
2305;SDS011;1161;51.922;8.896;2023-02-01T07:03:24;16.47;;;6.30;;
2305;SDS011;1161;51.922;8.896;2023-02-01T07:05:54;20.33;;;7.13;;
2305;SDS011;1161;51.922;8.896;2023-02-01T07:08:22;9.40;;;5.53;;
2305;SDS011;1161;51.922;8.896;2023-02-01T07:10:50;18.30;;;5.33;;
2305;SDS011;1161;51.922;8.896;2023-02-01T07:13:16;24.07;;;5.00;;
2305;SDS011;1161;51.922;8.896;2023-02-01T07:15:44;15.67;;;5.20;;
2305;SDS011;1161;51.922;8.896;2023-02-01T07:18:13;30.47;;;6.33;;
2305;SDS011;1161;51.922;8.896;2023-02-01T07:20:40;40.03;;;6.70;;
2305;SDS011;1161;51.922;8.896;2023-02-01T07:23:10;25.77;;;5.90;;
2305;SDS011;1161;51.922;8.896;2023-02-01T07:25:39;21.40;;;7.00;;
2305;SDS011;1161;51.922;8.896;2023-02-01T07:28:06;15.63;;;4.97;;
2305;SDS011;1161;51.922;8.896;2023-02-01T07:30:35;19.83;;;6.30;;
2305;SDS011;1161;51.922;8.896;2023-02-01T07:33:01;25.53;;;6.57;;
2305;SDS011;1161;51.922;8.896;2023-02-01T07:35:29;33.40;;;5.77;;
2305;SDS011;1161;51.922;8.896;2023-02-01T07:37:57;18.17;;;5.00;;
2305;SDS011;1161;51.922;8.896;2023-02-01T07:40:26;9.70;;;4.00;;
2305;SDS011;1161;51.922;8.896;2023-02-01T07:42:55;15.07;;;7.00;;
2305;SDS011;1161;51.922;8.896;2023-02-01T07:45:22;22.90;;;6.50;;
2305;SDS011;1161;51.922;8.896;2023-02-01T07:47:51;25.97;;;5.53;;
2305;SDS011;1161;51.922;8.896;2023-02-01T07:50:18;22.13;;;5.30;;
2305;SDS011;1161;51.922;8.896;2023-02-01T07:52:46;11.87;;;4.80;;
2305;SDS011;1161;51.922;8.896;2023-02-01T07:55:12;33.27;;;5.30;;
2305;SDS011;1161;51.922;8.896;2023-02-01T07:57:39;19.53;;;5.30;;
2305;SDS011;1161;51.922;8.896;2023-02-01T08:00:07;16.83;;;5.57;;
2305;SDS011;1161;51.922;8.896;2023-02-01T08:02:52;14.60;;;5.40;;
2305;SDS011;1161;51.922;8.896;2023-02-01T08:05:19;17.70;;;4.50;;
2305;SDS011;1161;51.922;8.896;2023-02-01T08:07:49;16.63;;;6.07;;
2305;SDS011;1161;51.922;8.896;2023-02-01T08:10:16;13.90;;;5.40;;
2305;SDS011;1161;51.922;8.896;2023-02-01T08:12:42;10.87;;;6.47;;
2305;SDS011;1161;51.922;8.896;2023-02-01T08:15:13;13.37;;;5.63;;
2305;SDS011;1161;51.922;8.896;2023-02-01T08:17:40;19.07;;;6.30;;
2305;SDS011;1161;51.922;8.896;2023-02-01T08:20:07;28.07;;;7.73;;
2305;SDS011;1161;51.922;8.896;2023-02-01T08:22:35;16.90;;;6.00;;
2305;SDS011;1161;51.922;8.896;2023-02-01T08:25:03;14.53;;;5.70;;
2305;SDS011;1161;51.922;8.896;2023-02-01T08:27:32;31.50;;;6.60;;
2305;SDS011;1161;51.922;8.896;2023-02-01T08:29:59;10.60;;;5.33;;
2305;SDS011;1161;51.922;8.896;2023-02-01T08:32:25;19.53;;;7.50;;
2305;SDS011;1161;51.922;8.896;2023-02-01T08:34:52;20.40;;;5.60;;
2305;SDS011;1161;51.922;8.896;2023-02-01T08:37:19;34.17;;;6.47;;
2305;SDS011;1161;51.922;8.896;2023-02-01T08:39:46;27.20;;;6.90;;
2305;SDS011;1161;51.922;8.896;2023-02-01T08:42:16;13.50;;;5.10;;
2305;SDS011;1161;51.922;8.896;2023-02-01T08:45:00;15.07;;;5.53;;
2305;SDS011;1161;51.922;8.896;2023-02-01T08:47:27;19.50;;;5.40;;
2305;SDS011;1161;51.922;8.896;2023-02-01T08:49:54;21.87;;;7.00;;
2305;SDS011;1161;51.922;8.896;2023-02-01T08:52:21;17.70;;;6.60;;
2305;SDS011;1161;51.922;8.896;2023-02-01T08:54:47;24.00;;;6.70;;
2305;SDS011;1161;51.922;8.896;2023-02-01T08:57:14;30.27;;;5.93;;
2305;SDS011;1161;51.922;8.896;2023-02-01T08:59:42;22.33;;;5.73;;
2305;SDS011;1161;51.922;8.896;2023-02-01T09:02:10;12.20;;;4.50;;
2305;SDS011;1161;51.922;8.896;2023-02-01T09:04:38;52.13;;;8.80;;
2305;SDS011;1161;51.922;8.896;2023-02-01T09:07:05;10.73;;;4.57;;
2305;SDS011;1161;51.922;8.896;2023-02-01T09:09:32;12.43;;;6.03;;
2305;SDS011;1161;51.922;8.896;2023-02-01T09:11:58;18.93;;;5.90;;
2305;SDS011;1161;51.922;8.896;2023-02-01T09:14:25;22.13;;;5.30;;
2305;SDS011;1161;51.922;8.896;2023-02-01T09:16:53;25.50;;;6.30;;
2305;SDS011;1161;51.922;8.896;2023-02-01T09:19:20;30.50;;;6.93;;
2305;SDS011;1161;51.922;8.896;2023-02-01T09:21:46;20.03;;;5.90;;
2305;SDS011;1161;51.922;8.896;2023-02-01T09:24:13;17.70;;;5.20;;
2305;SDS011;1161;51.922;8.896;2023-02-01T09:26:40;14.63;;;6.77;;
2305;SDS011;1161;51.922;8.896;2023-02-01T09:29:06;18.33;;;5.70;;
2305;SDS011;1161;51.922;8.896;2023-02-01T09:31:36;15.07;;;5.97;;
2305;SDS011;1161;51.922;8.896;2023-02-01T09:34:04;28.43;;;6.87;;
2305;SDS011;1161;51.922;8.896;2023-02-01T09:36:30;13.57;;;4.47;;
2305;SDS011;1161;51.922;8.896;2023-02-01T09:38:57;8.47;;;4.50;;
2305;SDS011;1161;51.922;8.896;2023-02-01T09:41:26;25.53;;;6.73;;
2305;SDS011;1161;51.922;8.896;2023-02-01T09:44:08;10.97;;;5.47;;
2305;SDS011;1161;51.922;8.896;2023-02-01T09:46:41;14.30;;;5.67;;
2305;SDS011;1161;51.922;8.896;2023-02-01T09:49:11;32.60;;;5.17;;
2305;SDS011;1161;51.922;8.896;2023-02-01T09:51:41;27.50;;;7.53;;
2305;SDS011;1161;51.922;8.896;2023-02-01T09:54:11;16.13;;;4.97;;
2305;SDS011;1161;51.922;8.896;2023-02-01T09:56:40;23.03;;;5.57;;
2305;SDS011;1161;51.922;8.896;2023-02-01T09:59:12;19.63;;;5.07;;
2305;SDS011;1161;51.922;8.896;2023-02-01T10:01:47;20.33;;;7.30;;
2305;SDS011;1161;51.922;8.896;2023-02-01T10:04:15;8.77;;;4.67;;
2305;SDS011;1161;51.922;8.896;2023-02-01T10:06:46;22.03;;;5.20;;
2305;SDS011;1161;51.922;8.896;2023-02-01T10:09:24;22.97;;;4.80;;
2305;SDS011;1161;51.922;8.896;2023-02-01T10:12:03;25.20;;;6.60;;
2305;SDS011;1161;51.922;8.896;2023-02-01T10:14:42;17.87;;;5.80;;
2305;SDS011;1161;51.922;8.896;2023-02-01T10:17:18;22.57;;;8.73;;
2305;SDS011;1161;51.922;8.896;2023-02-01T10:19:53;16.10;;;6.60;;
2305;SDS011;1161;51.922;8.896;2023-02-01T10:22:29;30.43;;;5.87;;
2305;SDS011;1161;51.922;8.896;2023-02-01T10:25:03;26.57;;;5.43;;
2305;SDS011;1161;51.922;8.896;2023-02-01T10:27:33;26.77;;;5.63;;
2305;SDS011;1161;51.922;8.896;2023-02-01T10:30:06;20.87;;;5.07;;
2305;SDS011;1161;51.922;8.896;2023-02-01T10:32:40;16.90;;;5.70;;
2305;SDS011;1161;51.922;8.896;2023-02-01T10:35:11;11.67;;;5.10;;
2305;SDS011;1161;51.922;8.896;2023-02-01T10:37:39;13.07;;;5.50;;
2305;SDS011;1161;51.922;8.896;2023-02-01T10:40:12;12.40;;;5.03;;
2305;SDS011;1161;51.922;8.896;2023-02-01T10:42:46;27.03;;;6.03;;
2305;SDS011;1161;51.922;8.896;2023-02-01T10:45:15;8.53;;;5.20;;
2305;SDS011;1161;51.922;8.896;2023-02-01T10:47:43;19.07;;;5.73;;
2305;SDS011;1161;51.922;8.896;2023-02-01T10:50:15;21.77;;;6.17;;
2305;SDS011;1161;51.922;8.896;2023-02-01T10:52:46;15.37;;;5.43;;
2305;SDS011;1161;51.922;8.896;2023-02-01T10:55:27;16.93;;;5.90;;
2305;SDS011;1161;51.922;8.896;2023-02-01T10:57:56;22.83;;;5.80;;
2305;SDS011;1161;51.922;8.896;2023-02-01T11:00:24;21.33;;;6.47;;
2305;SDS011;1161;51.922;8.896;2023-02-01T11:02:51;21.17;;;5.90;;
2305;SDS011;1161;51.922;8.896;2023-02-01T11:05:19;19.20;;;6.33;;
2305;SDS011;1161;51.922;8.896;2023-02-01T11:07:48;18.87;;;6.57;;
2305;SDS011;1161;51.922;8.896;2023-02-01T11:13:01;15.70;;;5.43;;
2305;SDS011;1161;51.922;8.896;2023-02-01T11:15:29;9.30;;;5.90;;
2305;SDS011;1161;51.922;8.896;2023-02-01T11:17:55;20.93;;;7.10;;
2305;SDS011;1161;51.922;8.896;2023-02-01T11:20:36;20.87;;;6.30;;
2305;SDS011;1161;51.922;8.896;2023-02-01T11:23:05;39.20;;;7.10;;
2305;SDS011;1161;51.922;8.896;2023-02-01T11:25:36;33.87;;;6.00;;
2305;SDS011;1161;51.922;8.896;2023-02-01T11:28:03;27.63;;;7.70;;
2305;SDS011;1161;51.922;8.896;2023-02-01T11:30:31;13.67;;;5.50;;
2305;SDS011;1161;51.922;8.896;2023-02-01T11:33:00;13.57;;;5.93;;
2305;SDS011;1161;51.922;8.896;2023-02-01T11:35:29;22.43;;;6.27;;
2305;SDS011;1161;51.922;8.896;2023-02-01T11:37:57;29.33;;;8.27;;
2305;SDS011;1161;51.922;8.896;2023-02-01T11:40:26;16.33;;;6.90;;
2305;SDS011;1161;51.922;8.896;2023-02-01T11:42:55;23.87;;;7.57;;
2305;SDS011;1161;51.922;8.896;2023-02-01T11:45:25;23.57;;;7.00;;
2305;SDS011;1161;51.922;8.896;2023-02-01T11:47:53;17.90;;;7.50;;
2305;SDS011;1161;51.922;8.896;2023-02-01T11:50:23;36.50;;;7.27;;
2305;SDS011;1161;51.922;8.896;2023-02-01T11:53:06;27.83;;;7.97;;
2305;SDS011;1161;51.922;8.896;2023-02-01T11:55:43;35.00;;;7.10;;
2305;SDS011;1161;51.922;8.896;2023-02-01T12:01:10;29.90;;;7.10;;
2305;SDS011;1161;51.922;8.896;2023-02-01T12:03:49;12.57;;;5.70;;
2305;SDS011;1161;51.922;8.896;2023-02-01T12:06:25;21.03;;;7.67;;
2305;SDS011;1161;51.922;8.896;2023-02-01T12:09:04;19.63;;;7.20;;
2305;SDS011;1161;51.922;8.896;2023-02-01T12:11:50;40.00;;;8.20;;
2305;SDS011;1161;51.922;8.896;2023-02-01T12:14:24;21.83;;;9.10;;
2305;SDS011;1161;51.922;8.896;2023-02-01T12:17:19;33.33;;;8.90;;
2305;SDS011;1161;51.922;8.896;2023-02-01T12:20:06;26.13;;;9.20;;
2305;SDS011;1161;51.922;8.896;2023-02-01T12:22:45;21.27;;;10.57;;
2305;SDS011;1161;51.922;8.896;2023-02-01T12:25:23;32.20;;;8.10;;
2305;SDS011;1161;51.922;8.896;2023-02-01T12:28:03;37.63;;;8.23;;
2305;SDS011;1161;51.922;8.896;2023-02-01T12:30:59;30.50;;;8.10;;
2305;SDS011;1161;51.922;8.896;2023-02-01T12:33:38;25.63;;;8.00;;
2305;SDS011;1161;51.922;8.896;2023-02-01T12:36:14;17.73;;;8.07;;
2305;SDS011;1161;51.922;8.896;2023-02-01T12:38:46;20.73;;;7.13;;
2305;SDS011;1161;51.922;8.896;2023-02-01T12:44:23;20.13;;;6.90;;
2305;SDS011;1161;51.922;8.896;2023-02-01T12:46:54;19.03;;;7.97;;
2305;SDS011;1161;51.922;8.896;2023-02-01T12:49:28;14.30;;;6.97;;
2305;SDS011;1161;51.922;8.896;2023-02-01T12:52:02;14.50;;;7.00;;
2305;SDS011;1161;51.922;8.896;2023-02-01T12:54:33;10.50;;;6.23;;
2305;SDS011;1161;51.922;8.896;2023-02-01T12:57:03;13.37;;;7.10;;
2305;SDS011;1161;51.922;8.896;2023-02-01T12:59:35;19.00;;;6.97;;
2305;SDS011;1161;51.922;8.896;2023-02-01T13:02:04;14.77;;;8.60;;
2305;SDS011;1161;51.922;8.896;2023-02-01T13:04:36;12.60;;;8.30;;
2305;SDS011;1161;51.922;8.896;2023-02-01T13:07:07;26.93;;;7.60;;
2305;SDS011;1161;51.922;8.896;2023-02-01T13:09:39;10.03;;;6.80;;
2305;SDS011;1161;51.922;8.896;2023-02-01T13:12:12;15.60;;;7.93;;
2305;SDS011;1161;51.922;8.896;2023-02-01T13:14:42;38.73;;;8.87;;
2305;SDS011;1161;51.922;8.896;2023-02-01T13:17:12;14.80;;;6.90;;
2305;SDS011;1161;51.922;8.896;2023-02-01T13:19:42;27.93;;;7.57;;
2305;SDS011;1161;51.922;8.896;2023-02-01T13:22:12;17.90;;;7.60;;
2305;SDS011;1161;51.922;8.896;2023-02-01T13:24:42;14.57;;;7.53;;
2305;SDS011;1161;51.922;8.896;2023-02-01T13:27:12;14.50;;;7.53;;
2305;SDS011;1161;51.922;8.896;2023-02-01T13:29:40;13.63;;;7.57;;
2305;SDS011;1161;51.922;8.896;2023-02-01T13:32:14;15.60;;;8.10;;
2305;SDS011;1161;51.922;8.896;2023-02-01T13:37:58;13.40;;;6.93;;
2305;SDS011;1161;51.922;8.896;2023-02-01T13:40:35;18.73;;;6.63;;
2305;SDS011;1161;51.922;8.896;2023-02-01T13:43:06;18.10;;;6.97;;
2305;SDS011;1161;51.922;8.896;2023-02-01T13:45:46;11.10;;;7.50;;
2305;SDS011;1161;51.922;8.896;2023-02-01T13:48:21;25.07;;;7.30;;
2305;SDS011;1161;51.922;8.896;2023-02-01T13:50:50;27.53;;;7.93;;
2305;SDS011;1161;51.922;8.896;2023-02-01T13:53:21;24.83;;;7.10;;
2305;SDS011;1161;51.922;8.896;2023-02-01T13:55:54;23.80;;;8.80;;
2305;SDS011;1161;51.922;8.896;2023-02-01T13:58:29;12.93;;;8.73;;
2305;SDS011;1161;51.922;8.896;2023-02-01T14:03:58;10.17;;;5.83;;
2305;SDS011;1161;51.922;8.896;2023-02-01T14:09:18;28.07;;;7.27;;
2305;SDS011;1161;51.922;8.896;2023-02-01T14:11:56;13.43;;;6.00;;
2305;SDS011;1161;51.922;8.896;2023-02-01T14:23:09;7.83;;;4.53;;
2305;SDS011;1161;51.922;8.896;2023-02-01T14:25:39;10.13;;;5.90;;
2305;SDS011;1161;51.922;8.896;2023-02-01T14:28:10;15.27;;;5.33;;
2305;SDS011;1161;51.922;8.896;2023-02-01T14:30:40;20.90;;;5.80;;
2305;SDS011;1161;51.922;8.896;2023-02-01T14:33:12;7.50;;;4.73;;
2305;SDS011;1161;51.922;8.896;2023-02-01T14:35:53;3.73;;;3.43;;
2305;SDS011;1161;51.922;8.896;2023-02-01T14:38:23;5.53;;;3.70;;
2305;SDS011;1161;51.922;8.896;2023-02-01T14:40:50;13.73;;;4.83;;
2305;SDS011;1161;51.922;8.896;2023-02-01T14:43:16;19.13;;;3.00;;
2305;SDS011;1161;51.922;8.896;2023-02-01T14:45:48;4.93;;;2.00;;
2305;SDS011;1161;51.922;8.896;2023-02-01T14:51:13;6.00;;;1.93;;
2305;SDS011;1161;51.922;8.896;2023-02-01T14:53:41;8.47;;;2.57;;
2305;SDS011;1161;51.922;8.896;2023-02-01T14:56:11;1.63;;;1.17;;
2305;SDS011;1161;51.922;8.896;2023-02-01T14:58:40;3.67;;;2.00;;
2305;SDS011;1161;51.922;8.896;2023-02-01T15:01:17;2.30;;;2.10;;
2305;SDS011;1161;51.922;8.896;2023-02-01T15:03:55;4.90;;;2.20;;
2305;SDS011;1161;51.922;8.896;2023-02-01T15:06:25;6.20;;;1.53;;
2305;SDS011;1161;51.922;8.896;2023-02-01T15:08:55;16.17;;;2.70;;
2305;SDS011;1161;51.922;8.896;2023-02-01T15:11:23;6.37;;;2.80;;
2305;SDS011;1161;51.922;8.896;2023-02-01T15:13:50;5.63;;;1.53;;
2305;SDS011;1161;51.922;8.896;2023-02-01T15:16:21;11.53;;;2.50;;
2305;SDS011;1161;51.922;8.896;2023-02-01T15:18:49;7.80;;;1.93;;
2305;SDS011;1161;51.922;8.896;2023-02-01T15:21:16;10.70;;;3.27;;
2305;SDS011;1161;51.922;8.896;2023-02-01T15:23:44;5.17;;;3.73;;
2305;SDS011;1161;51.922;8.896;2023-02-01T15:26:26;5.87;;;2.40;;
2305;SDS011;1161;51.922;8.896;2023-02-01T15:28:53;5.20;;;3.70;;
2305;SDS011;1161;51.922;8.896;2023-02-01T15:31:34;18.13;;;2.97;;
2305;SDS011;1161;51.922;8.896;2023-02-01T15:34:02;4.60;;;2.63;;
2305;SDS011;1161;51.922;8.896;2023-02-01T15:36:29;11.87;;;2.83;;
2305;SDS011;1161;51.922;8.896;2023-02-01T15:39:16;10.17;;;3.60;;
2305;SDS011;1161;51.922;8.896;2023-02-01T15:41:46;12.73;;;2.90;;
2305;SDS011;1161;51.922;8.896;2023-02-01T15:44:17;9.60;;;2.40;;
2305;SDS011;1161;51.922;8.896;2023-02-01T15:46:48;11.73;;;4.47;;
2305;SDS011;1161;51.922;8.896;2023-02-01T15:49:17;7.00;;;3.10;;
2305;SDS011;1161;51.922;8.896;2023-02-01T15:51:46;13.27;;;3.30;;
2305;SDS011;1161;51.922;8.896;2023-02-01T15:54:15;8.00;;;3.57;;
2305;SDS011;1161;51.922;8.896;2023-02-01T15:56:44;11.43;;;3.67;;
2305;SDS011;1161;51.922;8.896;2023-02-01T15:59:18;8.93;;;3.50;;
2305;SDS011;1161;51.922;8.896;2023-02-01T16:01:45;10.70;;;4.20;;